sensor_id;sensor_type;location;lat;lon;timestamp;pressure;altitude;pressure_sealevel;temperature;humidity
60974;BME280;46846;51.528;5.076;2024-02-26T00:00:57;99249.22;;;4.94;85.70
60974;BME280;46846;51.528;5.076;2024-02-26T00:03:22;99260.56;;;4.96;86.31
60974;BME280;46846;51.528;5.076;2024-02-26T00:05:47;99263.19;;;4.96;85.49
60974;BME280;46846;51.528;5.076;2024-02-26T00:08:13;99263.25;;;4.95;84.70
60974;BME280;46846;51.528;5.076;2024-02-26T00:10:38;99272.06;;;4.93;84.50
60974;BME280;46846;51.528;5.076;2024-02-26T00:13:03;99270.31;;;4.94;79.91
60974;BME280;46846;51.528;5.076;2024-02-26T00:15:29;99262.41;;;4.94;84.79
60974;BME280;46846;51.528;5.076;2024-02-26T00:17:54;99265.88;;;4.95;82.51
60974;BME280;46846;51.528;5.076;2024-02-26T00:20:19;99255.38;;;4.93;86.52
60974;BME280;46846;51.528;5.076;2024-02-26T00:22:44;99251.91;;;4.92;83.96
60974;BME280;46846;51.528;5.076;2024-02-26T00:25:10;99254.63;;;4.89;85.38
60974;BME280;46846;51.528;5.076;2024-02-26T00:27:37;99259.84;;;4.91;84.27
60974;BME280;46846;51.528;5.076;2024-02-26T00:30:04;99259.06;;;4.89;81.01
60974;BME280;46846;51.528;5.076;2024-02-26T00:32:30;99252.00;;;4.89;83.35
60974;BME280;46846;51.528;5.076;2024-02-26T00:34:55;99255.56;;;4.88;81.91
60974;BME280;46846;51.528;5.076;2024-02-26T00:37:20;99247.72;;;4.87;83.64
60974;BME280;46846;51.528;5.076;2024-02-26T00:39:45;99252.06;;;4.88;82.54
60974;BME280;46846;51.528;5.076;2024-02-26T00:42:11;99245.94;;;4.87;82.92
60974;BME280;46846;51.528;5.076;2024-02-26T00:44:37;99245.00;;;4.88;84.49
60974;BME280;46846;51.528;5.076;2024-02-26T00:47:02;99254.72;;;4.88;82.90
60974;BME280;46846;51.528;5.076;2024-02-26T00:49:27;99249.34;;;4.89;81.13
60974;BME280;46846;51.528;5.076;2024-02-26T00:51:52;99253.84;;;4.87;84.13
60974;BME280;46846;51.528;5.076;2024-02-26T00:54:18;99256.53;;;4.86;84.08
60974;BME280;46846;51.528;5.076;2024-02-26T00:56:43;99247.78;;;4.85;84.14
60974;BME280;46846;51.528;5.076;2024-02-26T00:59:08;99252.13;;;4.86;84.81
60974;BME280;46846;51.528;5.076;2024-02-26T01:01:33;99251.25;;;4.86;83.16
60974;BME280;46846;51.528;5.076;2024-02-26T01:03:59;99250.44;;;4.84;81.08
60974;BME280;46846;51.528;5.076;2024-02-26T01:06:25;99246.91;;;4.85;86.55
60974;BME280;46846;51.528;5.076;2024-02-26T01:08:50;99252.25;;;4.83;85.29
60974;BME280;46846;51.528;5.076;2024-02-26T01:11:15;99258.47;;;4.81;86.15
60974;BME280;46846;51.528;5.076;2024-02-26T01:13:41;99254.94;;;4.82;82.19
60974;BME280;46846;51.528;5.076;2024-02-26T01:16:06;99261.91;;;4.83;84.55
60974;BME280;46846;51.528;5.076;2024-02-26T01:18:31;99261.13;;;4.81;84.59
60974;BME280;46846;51.528;5.076;2024-02-26T01:20:56;99263.75;;;4.81;84.07
60974;BME280;46846;51.528;5.076;2024-02-26T01:23:22;99264.56;;;4.83;82.88
60974;BME280;46846;51.528;5.076;2024-02-26T01:25:47;99263.81;;;4.79;87.46
60974;BME280;46846;51.528;5.076;2024-02-26T01:28:13;99273.38;;;4.82;84.84
60974;BME280;46846;51.528;5.076;2024-02-26T01:30:39;99276.09;;;4.78;85.53
60974;BME280;46846;51.528;5.076;2024-02-26T01:33:04;99269.94;;;4.79;86.98
60974;BME280;46846;51.528;5.076;2024-02-26T01:35:29;99274.28;;;4.81;84.80
60974;BME280;46846;51.528;5.076;2024-02-26T01:37:55;99263.75;;;4.81;86.78
60974;BME280;46846;51.528;5.076;2024-02-26T01:40:20;99265.47;;;4.82;85.14
60974;BME280;46846;51.528;5.076;2024-02-26T01:42:46;99274.34;;;4.79;86.61
60974;BME280;46846;51.528;5.076;2024-02-26T01:45:13;99276.97;;;4.79;85.48
60974;BME280;46846;51.528;5.076;2024-02-26T01:47:40;99275.25;;;4.78;87.37
60974;BME280;46846;51.528;5.076;2024-02-26T01:50:06;99275.31;;;4.76;86.64
60974;BME280;46846;51.528;5.076;2024-02-26T01:52:31;99282.38;;;4.76;85.93
60974;BME280;46846;51.528;5.076;2024-02-26T01:54:57;99281.50;;;4.75;87.35
60974;BME280;46846;51.528;5.076;2024-02-26T01:57:23;99273.53;;;4.77;86.92
60974;BME280;46846;51.528;5.076;2024-02-26T01:59:48;99279.66;;;4.77;86.13
60974;BME280;46846;51.528;5.076;2024-02-26T02:02:13;99279.66;;;4.77;85.76
60974;BME280;46846;51.528;5.076;2024-02-26T02:04:40;99281.38;;;4.78;87.46
60974;BME280;46846;51.528;5.076;2024-02-26T02:07:05;99289.28;;;4.78;86.97
60974;BME280;46846;51.528;5.076;2024-02-26T02:09:31;99277.16;;;4.74;88.53
60974;BME280;46846;51.528;5.076;2024-02-26T02:11:56;99281.38;;;4.78;85.33
60974;BME280;46846;51.528;5.076;2024-02-26T02:14:23;99285.84;;;4.76;87.71
60974;BME280;46846;51.528;5.076;2024-02-26T02:16:49;99290.19;;;4.77;87.69
60974;BME280;46846;51.528;5.076;2024-02-26T02:19:14;99289.34;;;4.77;88.06
60974;BME280;46846;51.528;5.076;2024-02-26T02:21:39;99282.28;;;4.77;86.41
60974;BME280;46846;51.528;5.076;2024-02-26T02:24:04;99290.31;;;4.74;87.07
60974;BME280;46846;51.528;5.076;2024-02-26T02:26:30;99290.19;;;4.77;87.15
60974;BME280;46846;51.528;5.076;2024-02-26T02:28:55;99290.19;;;4.77;87.32
60974;BME280;46846;51.528;5.076;2024-02-26T02:31:21;99295.53;;;4.76;88.37
60974;BME280;46846;51.528;5.076;2024-02-26T02:33:46;99302.56;;;4.75;88.73
60974;BME280;46846;51.528;5.076;2024-02-26T02:36:12;99307.72;;;4.78;87.93
60974;BME280;46846;51.528;5.076;2024-02-26T02:38:37;99311.41;;;4.74;89.25
60974;BME280;46846;51.528;5.076;2024-02-26T02:41:02;99309.88;;;4.67;90.19
60974;BME280;46846;51.528;5.076;2024-02-26T02:43:28;99310.69;;;4.69;89.88
60974;BME280;46846;51.528;5.076;2024-02-26T02:45:53;99305.41;;;4.69;89.59
60974;BME280;46846;51.528;5.076;2024-02-26T02:48:18;99309.69;;;4.73;89.21
60974;BME280;46846;51.528;5.076;2024-02-26T02:50:44;99314.28;;;4.67;90.55
60974;BME280;46846;51.528;5.076;2024-02-26T02:53:09;99308.06;;;4.69;89.31
60974;BME280;46846;51.528;5.076;2024-02-26T02:55:35;99311.78;;;4.63;91.17
60974;BME280;46846;51.528;5.076;2024-02-26T02:58:00;99311.88;;;4.60;91.25
60974;BME280;46846;51.528;5.076;2024-02-26T03:00:25;99307.34;;;4.64;90.64
60974;BME280;46846;51.528;5.076;2024-02-26T03:02:51;99306.34;;;4.68;89.38
60974;BME280;46846;51.528;5.076;2024-02-26T03:05:16;99318.72;;;4.66;90.19
60974;BME280;46846;51.528;5.076;2024-02-26T03:07:41;99316.13;;;4.64;90.27
60974;BME280;46846;51.528;5.076;2024-02-26T03:10:07;99324.06;;;4.63;90.81
60974;BME280;46846;51.528;5.076;2024-02-26T03:12:33;99319.63;;;4.65;89.66
60974;BME280;46846;51.528;5.076;2024-02-26T03:14:58;99325.78;;;4.64;90.33
60974;BME280;46846;51.528;5.076;2024-02-26T03:17:26;99322.34;;;4.62;90.13
60974;BME280;46846;51.528;5.076;2024-02-26T03:19:51;99319.72;;;4.62;89.52
60974;BME280;46846;51.528;5.076;2024-02-26T03:22:19;99312.72;;;4.61;90.23
60974;BME280;46846;51.528;5.076;2024-02-26T03:24:45;99309.38;;;4.56;91.14
60974;BME280;46846;51.528;5.076;2024-02-26T03:27:10;99322.06;;;4.44;91.43
60974;BME280;46846;51.528;5.076;2024-02-26T03:29:36;99320.25;;;4.46;91.36
60974;BME280;46846;51.528;5.076;2024-02-26T03:32:02;99316.59;;;4.50;91.32
60974;BME280;46846;51.528;5.076;2024-02-26T03:34:27;99316.53;;;4.52;91.30
60974;BME280;46846;51.528;5.076;2024-02-26T03:36:53;99313.06;;;4.51;91.13
60974;BME280;46846;51.528;5.076;2024-02-26T03:39:18;99316.84;;;4.43;92.07
60974;BME280;46846;51.528;5.076;2024-02-26T03:41:43;99319.53;;;4.41;92.07
60974;BME280;46846;51.528;5.076;2024-02-26T03:44:09;99324.78;;;4.41;92.28
60974;BME280;46846;51.528;5.076;2024-02-26T03:46:34;99324.59;;;4.47;91.66
60974;BME280;46846;51.528;5.076;2024-02-26T03:49:00;99323.78;;;4.45;91.01
60974;BME280;46846;51.528;5.076;2024-02-26T03:51:25;99321.97;;;4.47;91.34
60974;BME280;46846;51.528;5.076;2024-02-26T03:53:51;99314.97;;;4.46;91.11
60974;BME280;46846;51.528;5.076;2024-02-26T03:56:17;99322.84;;;4.48;91.78
60974;BME280;46846;51.528;5.076;2024-02-26T03:58:42;99321.97;;;4.47;91.65
60974;BME280;46846;51.528;5.076;2024-02-26T04:01:07;99325.44;;;4.49;90.85
60974;BME280;46846;51.528;5.076;2024-02-26T04:03:33;99324.66;;;4.46;91.67
60974;BME280;46846;51.528;5.076;2024-02-26T04:05:58;99328.25;;;4.43;91.30
60974;BME280;46846;51.528;5.076;2024-02-26T04:08:23;99330.19;;;4.38;91.98
60974;BME280;46846;51.528;5.076;2024-02-26T04:10:49;99324.88;;;4.40;92.01
60974;BME280;46846;51.528;5.076;2024-02-26T04:13:14;99322.13;;;4.43;92.12
60974;BME280;46846;51.528;5.076;2024-02-26T04:15:39;99328.31;;;4.42;92.31
60974;BME280;46846;51.528;5.076;2024-02-26T04:18:05;99325.50;;;4.46;91.24
60974;BME280;46846;51.528;5.076;2024-02-26T04:20:30;99326.47;;;4.44;91.24
60974;BME280;46846;51.528;5.076;2024-02-26T04:22:55;99331.81;;;4.42;91.38
60974;BME280;46846;51.528;5.076;2024-02-26T04:25:21;99333.63;;;4.40;91.75
60974;BME280;46846;51.528;5.076;2024-02-26T04:27:46;99334.66;;;4.36;92.28
60974;BME280;46846;51.528;5.076;2024-02-26T04:30:11;99338.88;;;4.40;91.40
60974;BME280;46846;51.528;5.076;2024-02-26T04:32:36;99333.78;;;4.35;92.13
60974;BME280;46846;51.528;5.076;2024-02-26T04:35:02;99338.25;;;4.33;92.42
60974;BME280;46846;51.528;5.076;2024-02-26T04:37:28;99336.53;;;4.32;92.66
60974;BME280;46846;51.528;5.076;2024-02-26T04:39:57;99342.81;;;4.27;92.85
60974;BME280;46846;51.528;5.076;2024-02-26T04:42:22;99345.38;;;4.30;91.89
60974;BME280;46846;51.528;5.076;2024-02-26T04:44:47;99343.66;;;4.29;92.10
60974;BME280;46846;51.528;5.076;2024-02-26T04:47:13;99347.13;;;4.29;92.67
60974;BME280;46846;51.528;5.076;2024-02-26T04:49:39;99353.28;;;4.30;92.18
60974;BME280;46846;51.528;5.076;2024-02-26T04:52:04;99348.84;;;4.30;91.95
60974;BME280;46846;51.528;5.076;2024-02-26T04:54:29;99356.06;;;4.25;92.17
60974;BME280;46846;51.528;5.076;2024-02-26T04:56:55;99365.69;;;4.26;92.58
60974;BME280;46846;51.528;5.076;2024-02-26T04:59:20;99367.41;;;4.27;92.35
60974;BME280;46846;51.528;5.076;2024-02-26T05:01:45;99359.47;;;4.29;92.60
60974;BME280;46846;51.528;5.076;2024-02-26T05:04:10;99363.88;;;4.27;91.42
60974;BME280;46846;51.528;5.076;2024-02-26T05:06:36;99372.66;;;4.27;91.71
60974;BME280;46846;51.528;5.076;2024-02-26T05:09:01;99372.81;;;4.22;92.50
60974;BME280;46846;51.528;5.076;2024-02-26T05:11:28;99370.06;;;4.26;92.08
60974;BME280;46846;51.528;5.076;2024-02-26T05:13:53;99363.88;;;4.27;91.84
60974;BME280;46846;51.528;5.076;2024-02-26T05:16:19;99373.56;;;4.26;92.14
60974;BME280;46846;51.528;5.076;2024-02-26T05:18:46;99364.75;;;4.27;91.32
60974;BME280;46846;51.528;5.076;2024-02-26T05:21:11;99364.00;;;4.23;92.48
60974;BME280;46846;51.528;5.076;2024-02-26T05:23:37;99368.34;;;4.24;92.70
60974;BME280;46846;51.528;5.076;2024-02-26T05:26:02;99372.81;;;4.22;92.46
60974;BME280;46846;51.528;5.076;2024-02-26T05:28:27;99382.31;;;4.27;92.16
60974;BME280;46846;51.528;5.076;2024-02-26T05:30:52;99378.81;;;4.28;92.57
60974;BME280;46846;51.528;5.076;2024-02-26T05:33:18;99383.25;;;4.26;92.25
60974;BME280;46846;51.528;5.076;2024-02-26T05:35:43;99378.09;;;4.22;92.26
60974;BME280;46846;51.528;5.076;2024-02-26T05:38:08;99379.03;;;4.20;92.78
60974;BME280;46846;51.528;5.076;2024-02-26T05:40:33;99384.44;;;4.15;92.83
60974;BME280;46846;51.528;5.076;2024-02-26T05:42:59;99379.03;;;4.20;91.93
60974;BME280;46846;51.528;5.076;2024-02-26T05:45:24;99388.66;;;4.21;91.92
60974;BME280;46846;51.528;5.076;2024-02-26T05:47:49;99386.91;;;4.21;91.62
60974;BME280;46846;51.528;5.076;2024-02-26T05:50:15;99392.25;;;4.18;91.60
60974;BME280;46846;51.528;5.076;2024-02-26T05:52:40;99397.44;;;4.21;92.08
60974;BME280;46846;51.528;5.076;2024-02-26T05:55:05;99403.66;;;4.19;91.84
60974;BME280;46846;51.528;5.076;2024-02-26T05:57:31;99402.91;;;4.14;92.12
60974;BME280;46846;51.528;5.076;2024-02-26T05:59:57;99409.03;;;4.16;91.83
60974;BME280;46846;51.528;5.076;2024-02-26T06:02:25;99415.91;;;4.20;91.51
60974;BME280;46846;51.528;5.076;2024-02-26T06:04:51;99415.94;;;4.18;91.34
60974;BME280;46846;51.528;5.076;2024-02-26T06:07:16;99421.19;;;4.18;91.21
60974;BME280;46846;51.528;5.076;2024-02-26T06:09:41;99424.91;;;4.13;92.30
60974;BME280;46846;51.528;5.076;2024-02-26T06:12:06;99428.53;;;4.08;92.97
60974;BME280;46846;51.528;5.076;2024-02-26T06:14:32;99437.28;;;4.09;92.66
60974;BME280;46846;51.528;5.076;2024-02-26T06:16:57;99437.28;;;4.09;92.18
60974;BME280;46846;51.528;5.076;2024-02-26T06:19:22;99435.59;;;4.06;92.46
60974;BME280;46846;51.528;5.076;2024-02-26T06:21:47;99447.81;;;4.09;91.99
60974;BME280;46846;51.528;5.076;2024-02-26T06:24:13;99444.22;;;4.12;92.20
60974;BME280;46846;51.528;5.076;2024-02-26T06:26:38;99450.44;;;4.09;92.38
60974;BME280;46846;51.528;5.076;2024-02-26T06:29:03;99453.22;;;4.04;92.74
60974;BME280;46846;51.528;5.076;2024-02-26T06:31:29;99456.66;;;4.06;92.05
60974;BME280;46846;51.528;5.076;2024-02-26T06:33:54;99458.50;;;4.04;92.41
60974;BME280;46846;51.528;5.076;2024-02-26T06:36:20;99462.03;;;4.03;92.66
60974;BME280;46846;51.528;5.076;2024-02-26T06:38:45;99467.44;;;3.99;92.86
60974;BME280;46846;51.528;5.076;2024-02-26T06:41:11;99470.72;;;4.05;92.45
60974;BME280;46846;51.528;5.076;2024-02-26T06:43:36;99470.69;;;4.07;91.83
60974;BME280;46846;51.528;5.076;2024-02-26T06:46:01;99464.88;;;3.95;93.33
60974;BME280;46846;51.528;5.076;2024-02-26T06:48:27;99470.72;;;4.05;92.05
60974;BME280;46846;51.528;5.076;2024-02-26T06:50:52;99477.78;;;4.05;92.67
60974;BME280;46846;51.528;5.076;2024-02-26T06:53:17;99469.94;;;4.03;92.62
60974;BME280;46846;51.528;5.076;2024-02-26T06:55:43;99473.47;;;4.02;92.99
60974;BME280;46846;51.528;5.076;2024-02-26T06:58:08;99482.03;;;4.09;91.28
60974;BME280;46846;51.528;5.076;2024-02-26T07:00:33;99485.63;;;4.06;92.19
60974;BME280;46846;51.528;5.076;2024-02-26T07:02:58;99484.72;;;4.07;92.19
60974;BME280;46846;51.528;5.076;2024-02-26T07:05:24;99488.22;;;4.08;91.02
60974;BME280;46846;51.528;5.076;2024-02-26T07:07:49;99489.19;;;4.04;92.23
60974;BME280;46846;51.528;5.076;2024-02-26T07:10:14;99501.56;;;4.02;92.90
60974;BME280;46846;51.528;5.076;2024-02-26T07:12:39;99502.34;;;4.04;92.24
60974;BME280;46846;51.528;5.076;2024-02-26T07:15:05;99505.22;;;3.96;93.26
60974;BME280;46846;51.528;5.076;2024-02-26T07:17:33;99505.09;;;4.01;92.37
60974;BME280;46846;51.528;5.076;2024-02-26T07:19:59;99505.97;;;4.01;92.26
60974;BME280;46846;51.528;5.076;2024-02-26T07:22:24;99513.00;;;4.01;92.38
60974;BME280;46846;51.528;5.076;2024-02-26T07:24:50;99513.91;;;4.00;92.07
60974;BME280;46846;51.528;5.076;2024-02-26T07:27:15;99521.75;;;4.01;92.42
60974;BME280;46846;51.528;5.076;2024-02-26T07:29:42;99519.06;;;4.03;91.68
60974;BME280;46846;51.528;5.076;2024-02-26T07:32:08;99521.81;;;4.00;92.50
60974;BME280;46846;51.528;5.076;2024-02-26T07:34:33;99527.97;;;3.99;92.54
60974;BME280;46846;51.528;5.076;2024-02-26T07:36:58;99528.75;;;4.02;92.17
60974;BME280;46846;51.528;5.076;2024-02-26T07:39:24;99532.09;;;4.07;90.52
60974;BME280;46846;51.528;5.076;2024-02-26T07:41:49;99534.22;;;3.94;92.40
60974;BME280;46846;51.528;5.076;2024-02-26T07:44:16;99548.25;;;3.95;92.89
60974;BME280;46846;51.528;5.076;2024-02-26T07:46:42;99549.97;;;3.96;92.77
60974;BME280;46846;51.528;5.076;2024-02-26T07:49:07;99547.22;;;4.01;92.08
60974;BME280;46846;51.528;5.076;2024-02-26T07:51:33;99555.13;;;3.99;92.27
60974;BME280;46846;51.528;5.076;2024-02-26T07:53:58;99554.28;;;3.99;92.42
60974;BME280;46846;51.528;5.076;2024-02-26T07:56:24;99561.28;;;4.00;91.60
60974;BME280;46846;51.528;5.076;2024-02-26T07:58:49;99561.31;;;3.98;92.06
60974;BME280;46846;51.528;5.076;2024-02-26T08:01:14;99560.53;;;3.94;91.78
60974;BME280;46846;51.528;5.076;2024-02-26T08:03:40;99559.88;;;3.86;92.83
60974;BME280;46846;51.528;5.076;2024-02-26T08:06:05;99569.38;;;3.92;92.69
60974;BME280;46846;51.528;5.076;2024-02-26T08:08:30;99568.44;;;3.94;92.31
60974;BME280;46846;51.528;5.076;2024-02-26T08:10:56;99574.56;;;3.95;92.01
60974;BME280;46846;51.528;5.076;2024-02-26T08:13:21;99583.38;;;3.94;93.13
60974;BME280;46846;51.528;5.076;2024-02-26T08:15:46;99579.88;;;3.93;92.28
60974;BME280;46846;51.528;5.076;2024-02-26T08:18:11;99602.66;;;3.94;92.73
60974;BME280;46846;51.528;5.076;2024-02-26T08:20:37;99590.50;;;3.90;92.99
60974;BME280;46846;51.528;5.076;2024-02-26T08:23:02;99598.41;;;3.89;92.53
60974;BME280;46846;51.528;5.076;2024-02-26T08:25:27;99608.00;;;3.91;92.56
60974;BME280;46846;51.528;5.076;2024-02-26T08:27:53;99606.19;;;3.93;91.86
60974;BME280;46846;51.528;5.076;2024-02-26T08:30:18;99602.69;;;3.93;91.89
60974;BME280;46846;51.528;5.076;2024-02-26T08:32:44;99621.22;;;3.88;92.77
60974;BME280;46846;51.528;5.076;2024-02-26T08:35:09;99623.84;;;3.88;92.70
60974;BME280;46846;51.528;5.076;2024-02-26T08:37:35;99629.06;;;3.91;92.83
60974;BME280;46846;51.528;5.076;2024-02-26T08:40:00;99629.88;;;3.93;91.21
60974;BME280;46846;51.528;5.076;2024-02-26T08:42:25;99642.13;;;3.94;92.21
60974;BME280;46846;51.528;5.076;2024-02-26T08:44:50;99631.59;;;3.94;92.20
60974;BME280;46846;51.528;5.076;2024-02-26T08:47:16;99635.22;;;3.90;92.95
60974;BME280;46846;51.528;5.076;2024-02-26T08:49:44;99644.84;;;3.91;92.91
60974;BME280;46846;51.528;5.076;2024-02-26T08:52:10;99640.53;;;3.89;92.94
60974;BME280;46846;51.528;5.076;2024-02-26T08:54:35;99637.91;;;3.89;93.07
60974;BME280;46846;51.528;5.076;2024-02-26T08:57:00;99644.91;;;3.88;92.80
60974;BME280;46846;51.528;5.076;2024-02-26T08:59:25;99652.69;;;3.93;92.75
60974;BME280;46846;51.528;5.076;2024-02-26T09:01:51;99645.66;;;3.93;92.17
60974;BME280;46846;51.528;5.076;2024-02-26T09:04:16;99651.19;;;3.84;93.38
60974;BME280;46846;51.528;5.076;2024-02-26T09:06:41;99655.41;;;3.90;93.04
60974;BME280;46846;51.528;5.076;2024-02-26T09:09:06;99665.84;;;3.93;92.98
60974;BME280;46846;51.528;5.076;2024-02-26T09:11:32;99675.53;;;3.92;93.05
60974;BME280;46846;51.528;5.076;2024-02-26T09:13:57;99670.16;;;3.95;92.47
60974;BME280;46846;51.528;5.076;2024-02-26T09:16:22;99676.38;;;3.93;92.91
60974;BME280;46846;51.528;5.076;2024-02-26T09:18:47;99679.06;;;3.91;92.88
60974;BME280;46846;51.528;5.076;2024-02-26T09:21:13;99678.06;;;3.95;92.80
60974;BME280;46846;51.528;5.076;2024-02-26T09:23:38;99692.06;;;3.97;92.68
60974;BME280;46846;51.528;5.076;2024-02-26T09:26:05;99691.31;;;3.92;92.85
60974;BME280;46846;51.528;5.076;2024-02-26T09:28:30;99693.97;;;3.91;92.97
60974;BME280;46846;51.528;5.076;2024-02-26T09:30:59;99700.13;;;3.91;92.91
60974;BME280;46846;51.528;5.076;2024-02-26T09:33:25;99699.22;;;3.92;92.83
60974;BME280;46846;51.528;5.076;2024-02-26T09:35:50;99704.56;;;3.89;93.10
60974;BME280;46846;51.528;5.076;2024-02-26T09:38:15;99706.28;;;3.90;91.94
60974;BME280;46846;51.528;5.076;2024-02-26T09:40:40;99703.72;;;3.87;93.04
60974;BME280;46846;51.528;5.076;2024-02-26T09:43:06;99716.06;;;3.85;92.67
60974;BME280;46846;51.528;5.076;2024-02-26T09:45:32;99719.47;;;3.89;93.02
60974;BME280;46846;51.528;5.076;2024-02-26T09:47:58;99716.84;;;3.89;92.68
60974;BME280;46846;51.528;5.076;2024-02-26T09:50:23;99718.53;;;3.91;92.60
60974;BME280;46846;51.528;5.076;2024-02-26T09:52:49;99725.53;;;3.92;92.92
60974;BME280;46846;51.528;5.076;2024-02-26T09:55:14;99719.44;;;3.90;92.72
60974;BME280;46846;51.528;5.076;2024-02-26T09:57:42;99735.16;;;3.93;92.69
60974;BME280;46846;51.528;5.076;2024-02-26T10:00:09;99738.84;;;3.86;92.78
60974;BME280;46846;51.528;5.076;2024-02-26T10:02:38;99734.47;;;3.85;92.80
60974;BME280;46846;51.528;5.076;2024-02-26T10:05:04;99740.66;;;3.84;93.27
60974;BME280;46846;51.528;5.076;2024-02-26T10:07:32;99756.50;;;3.81;93.55
60974;BME280;46846;51.528;5.076;2024-02-26T10:09:58;99755.56;;;3.83;92.97
60974;BME280;46846;51.528;5.076;2024-02-26T10:12:23;99761.06;;;3.73;93.78
60974;BME280;46846;51.528;5.076;2024-02-26T10:14:50;99761.75;;;3.81;93.14
60974;BME280;46846;51.528;5.076;2024-02-26T10:17:16;99766.97;;;3.84;93.36
60974;BME280;46846;51.528;5.076;2024-02-26T10:19:42;99767.00;;;3.82;93.69
60974;BME280;46846;51.528;5.076;2024-02-26T10:22:07;99784.47;;;3.85;93.46
60974;BME280;46846;51.528;5.076;2024-02-26T10:24:32;99769.44;;;3.90;92.93
60974;BME280;46846;51.528;5.076;2024-02-26T10:26:59;99780.03;;;3.87;93.42
60974;BME280;46846;51.528;5.076;2024-02-26T10:29:25;99774.03;;;3.82;93.14
60974;BME280;46846;51.528;5.076;2024-02-26T10:31:50;99797.56;;;3.88;93.28
60974;BME280;46846;51.528;5.076;2024-02-26T10:34:16;99786.22;;;3.86;93.24
60974;BME280;46846;51.528;5.076;2024-02-26T10:36:41;99802.81;;;3.88;93.56
60974;BME280;46846;51.528;5.076;2024-02-26T10:39:07;99801.06;;;3.89;92.87
60974;BME280;46846;51.528;5.076;2024-02-26T10:41:35;99811.63;;;3.87;93.55
60974;BME280;46846;51.528;5.076;2024-02-26T10:44:00;99811.72;;;3.82;93.53
60974;BME280;46846;51.528;5.076;2024-02-26T10:46:26;99819.50;;;3.87;93.56
60974;BME280;46846;51.528;5.076;2024-02-26T10:48:52;99824.78;;;3.87;93.23
60974;BME280;46846;51.528;5.076;2024-02-26T10:51:18;99827.38;;;3.89;93.54
60974;BME280;46846;51.528;5.076;2024-02-26T10:53:45;99836.19;;;3.88;93.47
60974;BME280;46846;51.528;5.076;2024-02-26T10:56:12;99828.78;;;3.66;94.30
60974;BME280;46846;51.528;5.076;2024-02-26T10:58:40;99836.44;;;3.77;93.59
60974;BME280;46846;51.528;5.076;2024-02-26T11:01:07;99843.44;;;3.76;94.08
60974;BME280;46846;51.528;5.076;2024-02-26T11:03:33;99832.97;;;3.75;94.03
60974;BME280;46846;51.528;5.076;2024-02-26T11:06:01;99849.50;;;3.80;93.57
60974;BME280;46846;51.528;5.076;2024-02-26T11:08:26;99839.78;;;3.83;93.48
60974;BME280;46846;51.528;5.076;2024-02-26T11:10:53;99853.00;;;3.82;94.00
60974;BME280;46846;51.528;5.076;2024-02-26T11:13:19;99863.44;;;3.85;93.82
60974;BME280;46846;51.528;5.076;2024-02-26T11:15:47;99851.94;;;3.89;93.68
60974;BME280;46846;51.528;5.076;2024-02-26T11:18:14;99859.28;;;3.75;94.51
60974;BME280;46846;51.528;5.076;2024-02-26T11:20:40;99861.00;;;3.76;93.93
60974;BME280;46846;51.528;5.076;2024-02-26T11:23:06;99859.22;;;3.76;94.07
60974;BME280;46846;51.528;5.076;2024-02-26T11:25:32;99859.97;;;3.83;94.18
60974;BME280;46846;51.528;5.076;2024-02-26T11:27:58;99859.03;;;3.86;93.52
60974;BME280;46846;51.528;5.076;2024-02-26T11:30:26;99865.28;;;3.80;94.23
60974;BME280;46846;51.528;5.076;2024-02-26T11:32:53;99862.78;;;3.74;94.38
60974;BME280;46846;51.528;5.076;2024-02-26T11:35:19;99866.97;;;3.84;93.53
60974;BME280;46846;51.528;5.076;2024-02-26T11:37:51;99872.16;;;3.87;93.80
60974;BME280;46846;51.528;5.076;2024-02-26T11:40:17;99872.22;;;3.86;93.64
60974;BME280;46846;51.528;5.076;2024-02-26T11:42:43;99866.09;;;3.83;94.07
60974;BME280;46846;51.528;5.076;2024-02-26T11:47:56;99870.69;;;3.74;94.33
60974;BME280;46846;51.528;5.076;2024-02-26T11:50:34;99866.19;;;3.79;94.08
60974;BME280;46846;51.528;5.076;2024-02-26T11:55:44;99874.91;;;3.81;94.27
60974;BME280;46846;51.528;5.076;2024-02-26T11:58:10;99874.88;;;3.82;93.78
60974;BME280;46846;51.528;5.076;2024-02-26T12:00:35;99874.78;;;3.87;94.23
60974;BME280;46846;51.528;5.076;2024-02-26T12:03:00;99885.28;;;3.89;93.69
60974;BME280;46846;51.528;5.076;2024-02-26T12:05:32;99886.22;;;3.86;93.76
60974;BME280;46846;51.528;5.076;2024-02-26T12:10:31;99890.53;;;3.90;94.08
60974;BME280;46846;51.528;5.076;2024-02-26T12:13:10;99902.88;;;3.87;93.66
60974;BME280;46846;51.528;5.076;2024-02-26T12:15:46;99901.19;;;3.84;94.38
60974;BME280;46846;51.528;5.076;2024-02-26T12:18:19;99911.56;;;3.90;93.66
60974;BME280;46846;51.528;5.076;2024-02-26T12:20:45;99910.69;;;3.90;93.80
60974;BME280;46846;51.528;5.076;2024-02-26T12:23:15;99914.38;;;3.81;93.94
60974;BME280;46846;51.528;5.076;2024-02-26T12:25:42;99930.16;;;3.82;93.91
60974;BME280;46846;51.528;5.076;2024-02-26T12:28:09;99934.50;;;3.83;93.98
60974;BME280;46846;51.528;5.076;2024-02-26T12:30:34;99922.38;;;3.76;94.28
60974;BME280;46846;51.528;5.076;2024-02-26T12:32:59;99929.31;;;3.82;94.28
60974;BME280;46846;51.528;5.076;2024-02-26T12:35:26;99941.50;;;3.85;93.68
60974;BME280;46846;51.528;5.076;2024-02-26T12:37:52;99944.28;;;3.78;94.01
60974;BME280;46846;51.528;5.076;2024-02-26T12:40:18;99949.63;;;3.74;94.93
60974;BME280;46846;51.528;5.076;2024-02-26T12:42:44;99935.59;;;3.75;94.76
60974;BME280;46846;51.528;5.076;2024-02-26T12:45:09;99940.78;;;3.78;94.75
60974;BME280;46846;51.528;5.076;2024-02-26T12:47:37;99959.19;;;3.79;94.26
60974;BME280;46846;51.528;5.076;2024-02-26T12:50:03;99961.72;;;3.84;93.84
60974;BME280;46846;51.528;5.076;2024-02-26T12:52:29;99955.53;;;3.85;93.79
60974;BME280;46846;51.528;5.076;2024-02-26T12:54:55;99973.06;;;3.86;93.99
60974;BME280;46846;51.528;5.076;2024-02-26T12:57:20;99972.38;;;3.76;94.80
60974;BME280;46846;51.528;5.076;2024-02-26T12:59:46;99972.28;;;3.81;94.52
60974;BME280;46846;51.528;5.076;2024-02-26T13:02:11;99964.47;;;3.76;94.39
60974;BME280;46846;51.528;5.076;2024-02-26T13:04:36;99984.59;;;3.79;94.58
60974;BME280;46846;51.528;5.076;2024-02-26T13:07:05;99985.38;;;3.86;94.11
60974;BME280;46846;51.528;5.076;2024-02-26T13:09:33;99993.22;;;3.87;94.43